Lookout, West Virginia
Current Conditions -  °F | °C
As of 4:51 AM on Saturday 25 Oct 2014 (Local Time) from KBKW Reporting Station
Clear Clear  
Wind Chill: 34°   Ceiling: Unl
Heat Index: 39°   Visibility: 10mi
Dew Point: 36°   Wind: 7mph
Humidity: 89%   Direction: 170°S
Pressure: 30.05"   Gusts: NA
Location:  38.06°N, 80.97°W
Report Text: KBKW 250851Z AUTO 17006KT 10SM CLR 04/02 A3005 RMK AO2 SLP176 T00390022 55005 TSNO
Loading
Personal Weather Stations






























Interactive Weather Map
Tropical Storm Tracking
New forecast layout! Learn more

10-Day Weather Forecast

Advertisements
Track Severe Weather on mobile